sensor_id;sensor_type;location;lat;lon;timestamp;pressure;altitude;pressure_sealevel;temperature
68510;BMP180;55512;50.102;19.958;2022-08-19T00:01:28;98323.20;;;25.50
68510;BMP180;55512;50.102;19.958;2022-08-19T00:03:57;98324.00;;;25.50
68510;BMP180;55512;50.102;19.958;2022-08-19T00:06:27;98323.80;;;25.42
68510;BMP180;55512;50.102;19.958;2022-08-19T00:08:54;98323.80;;;25.40
68510;BMP180;55512;50.102;19.958;2022-08-19T00:11:21;98318.80;;;25.40
68510;BMP180;55512;50.102;19.958;2022-08-19T00:13:47;98321.20;;;25.30
68510;BMP180;55512;50.102;19.958;2022-08-19T00:16:18;98324.40;;;25.30
68510;BMP180;55512;50.102;19.958;2022-08-19T00:18:45;98321.80;;;25.30
68510;BMP180;55512;50.102;19.958;2022-08-19T00:21:11;98320.60;;;25.30
68510;BMP180;55512;50.102;19.958;2022-08-19T00:23:36;98317.80;;;25.38
68510;BMP180;55512;50.102;19.958;2022-08-19T00:26:07;98319.60;;;25.32
68510;BMP180;55512;50.102;19.958;2022-08-19T00:28:33;98322.00;;;25.30
68510;BMP180;55512;50.102;19.958;2022-08-19T00:31:03;98322.20;;;25.30
68510;BMP180;55512;50.102;19.958;2022-08-19T00:33:30;98322.60;;;25.30
68510;BMP180;55512;50.102;19.958;2022-08-19T00:36:06;98323.80;;;25.30
68510;BMP180;55512;50.102;19.958;2022-08-19T00:38:34;98320.00;;;25.20
68510;BMP180;55512;50.102;19.958;2022-08-19T00:41:00;98318.80;;;25.18
68510;BMP180;55512;50.102;19.958;2022-08-19T00:43:27;98315.60;;;25.10
68510;BMP180;55512;50.102;19.958;2022-08-19T00:45:54;98314.40;;;25.10
68510;BMP180;55512;50.102;19.958;2022-08-19T00:48:21;98318.40;;;25.10
68510;BMP180;55512;50.102;19.958;2022-08-19T00:50:50;98318.60;;;25.08
68510;BMP180;55512;50.102;19.958;2022-08-19T00:53:23;98318.00;;;25.08
68510;BMP180;55512;50.102;19.958;2022-08-19T00:55:53;98315.60;;;25.08
68510;BMP180;55512;50.102;19.958;2022-08-19T00:58:24;98314.40;;;25.02
68510;BMP180;55512;50.102;19.958;2022-08-19T01:00:53;98309.60;;;25.00
68510;BMP180;55512;50.102;19.958;2022-08-19T01:03:22;98310.40;;;25.00
68510;BMP180;55512;50.102;19.958;2022-08-19T01:05:51;98311.80;;;25.00
68510;BMP180;55512;50.102;19.958;2022-08-19T01:08:19;98309.60;;;25.00
68510;BMP180;55512;50.102;19.958;2022-08-19T01:10:49;98307.80;;;25.00
68510;BMP180;55512;50.102;19.958;2022-08-19T01:13:19;98309.80;;;25.00
68510;BMP180;55512;50.102;19.958;2022-08-19T01:15:52;98306.20;;;25.00
68510;BMP180;55512;50.102;19.958;2022-08-19T01:18:20;98306.60;;;24.94
68510;BMP180;55512;50.102;19.958;2022-08-19T01:20:47;98300.60;;;24.90
68510;BMP180;55512;50.102;19.958;2022-08-19T01:23:14;98293.00;;;24.90
68510;BMP180;55512;50.102;19.958;2022-08-19T01:25:49;98288.00;;;24.90
68510;BMP180;55512;50.102;19.958;2022-08-19T01:28:24;98277.40;;;24.90
68510;BMP180;55512;50.102;19.958;2022-08-19T01:30:54;98275.00;;;24.84
68510;BMP180;55512;50.102;19.958;2022-08-19T01:33:21;98282.20;;;24.84
68510;BMP180;55512;50.102;19.958;2022-08-19T01:35:47;98277.20;;;24.90
68510;BMP180;55512;50.102;19.958;2022-08-19T01:38:24;98271.60;;;24.90
68510;BMP180;55512;50.102;19.958;2022-08-19T01:40:51;98269.00;;;24.90
68510;BMP180;55512;50.102;19.958;2022-08-19T01:43:17;98269.80;;;24.90
68510;BMP180;55512;50.102;19.958;2022-08-19T01:45:45;98272.60;;;24.90
68510;BMP180;55512;50.102;19.958;2022-08-19T01:48:12;98272.60;;;24.92
68510;BMP180;55512;50.102;19.958;2022-08-19T01:50:38;98269.80;;;24.96
68510;BMP180;55512;50.102;19.958;2022-08-19T01:53:09;98271.20;;;24.98
68510;BMP180;55512;50.102;19.958;2022-08-19T01:55:39;98280.40;;;24.90
68510;BMP180;55512;50.102;19.958;2022-08-19T01:58:13;98280.20;;;24.90
68510;BMP180;55512;50.102;19.958;2022-08-19T02:00:41;98278.80;;;24.90
68510;BMP180;55512;50.102;19.958;2022-08-19T02:03:07;98276.80;;;24.90
68510;BMP180;55512;50.102;19.958;2022-08-19T02:05:34;98279.00;;;24.88
68510;BMP180;55512;50.102;19.958;2022-08-19T02:08:00;98282.00;;;24.82
68510;BMP180;55512;50.102;19.958;2022-08-19T02:10:25;98276.60;;;24.80
68510;BMP180;55512;50.102;19.958;2022-08-19T02:12:51;98277.60;;;24.80
68510;BMP180;55512;50.102;19.958;2022-08-19T02:15:19;98276.60;;;24.80
68510;BMP180;55512;50.102;19.958;2022-08-19T02:17:46;98271.20;;;24.80
68510;BMP180;55512;50.102;19.958;2022-08-19T02:20:13;98269.20;;;24.70
68510;BMP180;55512;50.102;19.958;2022-08-19T02:22:41;98261.40;;;24.70
68510;BMP180;55512;50.102;19.958;2022-08-19T02:25:12;98256.20;;;24.60
68510;BMP180;55512;50.102;19.958;2022-08-19T02:27:39;98255.60;;;24.60
68510;BMP180;55512;50.102;19.958;2022-08-19T02:30:13;98260.80;;;24.60
68510;BMP180;55512;50.102;19.958;2022-08-19T02:32:41;98259.80;;;24.60
68510;BMP180;55512;50.102;19.958;2022-08-19T02:35:08;98256.00;;;24.50
68510;BMP180;55512;50.102;19.958;2022-08-19T02:37:34;98255.20;;;24.50
68510;BMP180;55512;50.102;19.958;2022-08-19T02:40:18;98261.40;;;24.40
68510;BMP180;55512;50.102;19.958;2022-08-19T02:42:45;98260.20;;;24.40
68510;BMP180;55512;50.102;19.958;2022-08-19T02:45:13;98258.00;;;24.34
68510;BMP180;55512;50.102;19.958;2022-08-19T02:47:39;98263.60;;;24.30
68510;BMP180;55512;50.102;19.958;2022-08-19T02:50:06;98275.20;;;24.30
68510;BMP180;55512;50.102;19.958;2022-08-19T02:52:34;98270.60;;;24.20
68510;BMP180;55512;50.102;19.958;2022-08-19T02:55:00;98263.20;;;24.20
68510;BMP180;55512;50.102;19.958;2022-08-19T02:57:26;98261.80;;;24.20
68510;BMP180;55512;50.102;19.958;2022-08-19T02:59:53;98260.20;;;24.20
68510;BMP180;55512;50.102;19.958;2022-08-19T03:02:19;98266.80;;;24.10
68510;BMP180;55512;50.102;19.958;2022-08-19T03:04:45;98275.60;;;24.10
68510;BMP180;55512;50.102;19.958;2022-08-19T03:07:16;98282.60;;;24.06
68510;BMP180;55512;50.102;19.958;2022-08-19T03:09:42;98288.80;;;24.00
68510;BMP180;55512;50.102;19.958;2022-08-19T03:12:08;98288.60;;;24.00
68510;BMP180;55512;50.102;19.958;2022-08-19T03:14:34;98289.00;;;23.90
68510;BMP180;55512;50.102;19.958;2022-08-19T03:17:01;98282.60;;;23.82
68510;BMP180;55512;50.102;19.958;2022-08-19T03:19:26;98282.60;;;23.80
68510;BMP180;55512;50.102;19.958;2022-08-19T03:21:53;98287.00;;;23.72
68510;BMP180;55512;50.102;19.958;2022-08-19T03:24:20;98289.20;;;23.70
68510;BMP180;55512;50.102;19.958;2022-08-19T03:26:53;98288.20;;;23.70
68510;BMP180;55512;50.102;19.958;2022-08-19T03:29:23;98286.20;;;23.80
68510;BMP180;55512;50.102;19.958;2022-08-19T03:31:49;98283.40;;;23.80
68510;BMP180;55512;50.102;19.958;2022-08-19T03:34:27;98284.60;;;23.80
68510;BMP180;55512;50.102;19.958;2022-08-19T03:36:59;98288.60;;;23.80
68510;BMP180;55512;50.102;19.958;2022-08-19T03:39:28;98287.60;;;23.80
68510;BMP180;55512;50.102;19.958;2022-08-19T03:41:55;98287.40;;;23.80
68510;BMP180;55512;50.102;19.958;2022-08-19T03:44:25;98283.80;;;23.80
68510;BMP180;55512;50.102;19.958;2022-08-19T03:46:54;98287.60;;;23.80
68510;BMP180;55512;50.102;19.958;2022-08-19T03:49:23;98288.60;;;23.80
68510;BMP180;55512;50.102;19.958;2022-08-19T03:51:49;98287.20;;;23.80
68510;BMP180;55512;50.102;19.958;2022-08-19T03:54:19;98284.00;;;23.80
68510;BMP180;55512;50.102;19.958;2022-08-19T03:56:48;98293.60;;;23.86
68510;BMP180;55512;50.102;19.958;2022-08-19T03:59:36;98292.80;;;23.90
68510;BMP180;55512;50.102;19.958;2022-08-19T04:02:08;98295.60;;;23.90
68510;BMP180;55512;50.102;19.958;2022-08-19T04:04:36;98294.20;;;23.90
68510;BMP180;55512;50.102;19.958;2022-08-19T04:07:02;98290.40;;;23.90
68510;BMP180;55512;50.102;19.958;2022-08-19T04:09:28;98284.40;;;23.90
68510;BMP180;55512;50.102;19.958;2022-08-19T04:11:58;98283.40;;;24.00
68510;BMP180;55512;50.102;19.958;2022-08-19T04:14:27;98281.00;;;24.00
68510;BMP180;55512;50.102;19.958;2022-08-19T04:16:56;98279.00;;;24.00
68510;BMP180;55512;50.102;19.958;2022-08-19T04:19:22;98279.80;;;23.94
68510;BMP180;55512;50.102;19.958;2022-08-19T04:21:53;98274.20;;;23.90
68510;BMP180;55512;50.102;19.958;2022-08-19T04:24:21;98274.00;;;23.90
68510;BMP180;55512;50.102;19.958;2022-08-19T04:26:48;98282.00;;;23.98
68510;BMP180;55512;50.102;19.958;2022-08-19T04:29:20;98289.80;;;24.00
68510;BMP180;55512;50.102;19.958;2022-08-19T04:31:48;98292.60;;;24.00
68510;BMP180;55512;50.102;19.958;2022-08-19T04:34:18;98287.40;;;24.00
68510;BMP180;55512;50.102;19.958;2022-08-19T04:36:48;98281.00;;;24.00
68510;BMP180;55512;50.102;19.958;2022-08-19T04:39:21;98282.00;;;24.00
68510;BMP180;55512;50.102;19.958;2022-08-19T04:41:47;98288.20;;;24.00
68510;BMP180;55512;50.102;19.958;2022-08-19T04:44:34;98297.80;;;24.00
68510;BMP180;55512;50.102;19.958;2022-08-19T04:47:00;98300.40;;;23.90
68510;BMP180;55512;50.102;19.958;2022-08-19T04:49:26;98303.40;;;23.90
68510;BMP180;55512;50.102;19.958;2022-08-19T04:51:53;98318.80;;;23.90
68510;BMP180;55512;50.102;19.958;2022-08-19T04:54:23;98317.80;;;23.90
68510;BMP180;55512;50.102;19.958;2022-08-19T04:56:53;98322.00;;;23.80
68510;BMP180;55512;50.102;19.958;2022-08-19T04:59:20;98326.60;;;23.84
68510;BMP180;55512;50.102;19.958;2022-08-19T05:01:47;98332.60;;;23.90
68510;BMP180;55512;50.102;19.958;2022-08-19T05:04:19;98334.20;;;23.90
68510;BMP180;55512;50.102;19.958;2022-08-19T05:06:48;98343.00;;;23.90
68510;BMP180;55512;50.102;19.958;2022-08-19T05:09:15;98338.40;;;23.90
68510;BMP180;55512;50.102;19.958;2022-08-19T05:11:43;98333.60;;;23.90
68510;BMP180;55512;50.102;19.958;2022-08-19T05:14:10;98338.20;;;23.90
68510;BMP180;55512;50.102;19.958;2022-08-19T05:16:38;98345.60;;;23.90
68510;BMP180;55512;50.102;19.958;2022-08-19T05:19:04;98344.80;;;23.90
68510;BMP180;55512;50.102;19.958;2022-08-19T05:21:49;98336.80;;;23.90
68510;BMP180;55512;50.102;19.958;2022-08-19T05:24:33;98337.40;;;23.90
68510;BMP180;55512;50.102;19.958;2022-08-19T05:27:00;98337.20;;;23.90
68510;BMP180;55512;50.102;19.958;2022-08-19T05:29:29;98341.20;;;23.90
68510;BMP180;55512;50.102;19.958;2022-08-19T05:31:57;98342.80;;;23.90
68510;BMP180;55512;50.102;19.958;2022-08-19T05:34:25;98342.80;;;23.82
68510;BMP180;55512;50.102;19.958;2022-08-19T05:36:56;98341.80;;;23.90
68510;BMP180;55512;50.102;19.958;2022-08-19T05:39:28;98344.20;;;23.90
68510;BMP180;55512;50.102;19.958;2022-08-19T05:42:10;98341.20;;;23.90
68510;BMP180;55512;50.102;19.958;2022-08-19T05:44:40;98334.80;;;23.90
68510;BMP180;55512;50.102;19.958;2022-08-19T05:47:12;98333.40;;;23.90
68510;BMP180;55512;50.102;19.958;2022-08-19T05:49:38;98337.60;;;24.00
68510;BMP180;55512;50.102;19.958;2022-08-19T05:52:06;98337.00;;;24.10
68510;BMP180;55512;50.102;19.958;2022-08-19T05:54:34;98339.20;;;24.20
68510;BMP180;55512;50.102;19.958;2022-08-19T05:57:01;98340.20;;;24.30
68510;BMP180;55512;50.102;19.958;2022-08-19T05:59:27;98338.60;;;24.40
68510;BMP180;55512;50.102;19.958;2022-08-19T06:01:54;98340.00;;;24.50
68510;BMP180;55512;50.102;19.958;2022-08-19T06:04:21;98337.20;;;24.60
68510;BMP180;55512;50.102;19.958;2022-08-19T06:06:50;98333.00;;;24.68
68510;BMP180;55512;50.102;19.958;2022-08-19T06:09:17;98324.00;;;24.70
68510;BMP180;55512;50.102;19.958;2022-08-19T06:11:53;98322.00;;;24.80
68510;BMP180;55512;50.102;19.958;2022-08-19T06:14:30;98325.00;;;24.86
68510;BMP180;55512;50.102;19.958;2022-08-19T06:16:57;98330.00;;;25.00
68510;BMP180;55512;50.102;19.958;2022-08-19T06:19:25;98330.80;;;25.00
68510;BMP180;55512;50.102;19.958;2022-08-19T06:21:52;98335.60;;;25.10
68510;BMP180;55512;50.102;19.958;2022-08-19T06:24:24;98338.60;;;25.20
68510;BMP180;55512;50.102;19.958;2022-08-19T06:26:53;98344.00;;;25.30
68510;BMP180;55512;50.102;19.958;2022-08-19T06:29:23;98345.40;;;25.34
68510;BMP180;55512;50.102;19.958;2022-08-19T06:31:52;98350.60;;;25.40
68510;BMP180;55512;50.102;19.958;2022-08-19T06:34:19;98350.80;;;25.50
68510;BMP180;55512;50.102;19.958;2022-08-19T06:36:49;98344.80;;;25.58
68510;BMP180;55512;50.102;19.958;2022-08-19T06:39:23;98343.80;;;25.60
68510;BMP180;55512;50.102;19.958;2022-08-19T06:41:54;98348.40;;;25.74
68510;BMP180;55512;50.102;19.958;2022-08-19T06:44:24;98343.20;;;25.90
68510;BMP180;55512;50.102;19.958;2022-08-19T06:46:52;98347.00;;;26.00
68510;BMP180;55512;50.102;19.958;2022-08-19T06:49:18;98359.20;;;26.04
68510;BMP180;55512;50.102;19.958;2022-08-19T06:51:47;98357.20;;;26.10
68510;BMP180;55512;50.102;19.958;2022-08-19T06:54:14;98355.80;;;26.20
68510;BMP180;55512;50.102;19.958;2022-08-19T06:56:41;98359.20;;;26.30
68510;BMP180;55512;50.102;19.958;2022-08-19T06:59:12;98357.80;;;26.38
68510;BMP180;55512;50.102;19.958;2022-08-19T07:01:44;98360.00;;;26.40
68510;BMP180;55512;50.102;19.958;2022-08-19T07:04:14;98366.80;;;26.50
68510;BMP180;55512;50.102;19.958;2022-08-19T07:06:42;98373.40;;;26.56
68510;BMP180;55512;50.102;19.958;2022-08-19T07:09:10;98381.00;;;26.60
68510;BMP180;55512;50.102;19.958;2022-08-19T07:11:36;98382.80;;;26.60
68510;BMP180;55512;50.102;19.958;2022-08-19T07:14:02;98381.60;;;26.54
68510;BMP180;55512;50.102;19.958;2022-08-19T07:16:29;98379.80;;;26.50
68510;BMP180;55512;50.102;19.958;2022-08-19T07:18:55;98377.20;;;26.50
68510;BMP180;55512;50.102;19.958;2022-08-19T07:21:27;98372.40;;;26.50
68510;BMP180;55512;50.102;19.958;2022-08-19T07:23:55;98369.40;;;26.50
68510;BMP180;55512;50.102;19.958;2022-08-19T07:26:27;98367.80;;;26.50
68510;BMP180;55512;50.102;19.958;2022-08-19T07:28:55;98366.80;;;26.50
68510;BMP180;55512;50.102;19.958;2022-08-19T07:31:25;98369.20;;;26.50
68510;BMP180;55512;50.102;19.958;2022-08-19T07:33:53;98370.60;;;26.50
68510;BMP180;55512;50.102;19.958;2022-08-19T07:36:27;98374.40;;;26.50
68510;BMP180;55512;50.102;19.958;2022-08-19T07:39:00;98376.00;;;26.50
68510;BMP180;55512;50.102;19.958;2022-08-19T07:41:28;98381.60;;;26.50
68510;BMP180;55512;50.102;19.958;2022-08-19T07:43:58;98382.20;;;26.50
68510;BMP180;55512;50.102;19.958;2022-08-19T07:46:31;98380.00;;;26.50
68510;BMP180;55512;50.102;19.958;2022-08-19T07:48:57;98380.80;;;26.50
68510;BMP180;55512;50.102;19.958;2022-08-19T07:51:24;98385.00;;;26.50
68510;BMP180;55512;50.102;19.958;2022-08-19T07:53:50;98385.60;;;26.50
68510;BMP180;55512;50.102;19.958;2022-08-19T07:56:18;98387.80;;;26.50
68510;BMP180;55512;50.102;19.958;2022-08-19T07:58:48;98391.80;;;26.70
68510;BMP180;55512;50.102;19.958;2022-08-19T08:01:18;98398.40;;;26.80
68510;BMP180;55512;50.102;19.958;2022-08-19T08:03:45;98405.60;;;27.00
68510;BMP180;55512;50.102;19.958;2022-08-19T08:06:29;98403.60;;;27.10
68510;BMP180;55512;50.102;19.958;2022-08-19T08:09:19;98404.60;;;27.24
68510;BMP180;55512;50.102;19.958;2022-08-19T08:11:54;98410.20;;;27.40
68510;BMP180;55512;50.102;19.958;2022-08-19T08:14:27;98410.40;;;27.60
68510;BMP180;55512;50.102;19.958;2022-08-19T08:16:53;98406.80;;;27.70
68510;BMP180;55512;50.102;19.958;2022-08-19T08:19:22;98406.60;;;27.80
68510;BMP180;55512;50.102;19.958;2022-08-19T08:21:49;98413.40;;;27.90
68510;BMP180;55512;50.102;19.958;2022-08-19T08:24:17;98415.60;;;28.00
68510;BMP180;55512;50.102;19.958;2022-08-19T08:26:44;98414.60;;;28.10
68510;BMP180;55512;50.102;19.958;2022-08-19T08:29:11;98413.20;;;28.20
68510;BMP180;55512;50.102;19.958;2022-08-19T08:31:39;98408.20;;;28.30
68510;BMP180;55512;50.102;19.958;2022-08-19T08:34:07;98415.00;;;28.40
68510;BMP180;55512;50.102;19.958;2022-08-19T08:36:41;98418.00;;;28.60
68510;BMP180;55512;50.102;19.958;2022-08-19T08:39:20;98417.60;;;28.70
68510;BMP180;55512;50.102;19.958;2022-08-19T08:42:08;98415.80;;;28.80
68510;BMP180;55512;50.102;19.958;2022-08-19T08:47:12;98410.20;;;28.92
68510;BMP180;55512;50.102;19.958;2022-08-19T08:49:59;98414.60;;;29.00
68510;BMP180;55512;50.102;19.958;2022-08-19T08:52:34;98411.80;;;29.12
68510;BMP180;55512;50.102;19.958;2022-08-19T08:55:11;98408.40;;;29.26
68510;BMP180;55512;50.102;19.958;2022-08-19T08:57:55;98408.20;;;29.34
68510;BMP180;55512;50.102;19.958;2022-08-19T09:00:39;98409.40;;;29.40
68510;BMP180;55512;50.102;19.958;2022-08-19T09:03:21;98403.40;;;29.50
68510;BMP180;55512;50.102;19.958;2022-08-19T09:06:07;98402.80;;;29.60
68510;BMP180;55512;50.102;19.958;2022-08-19T09:09:12;98406.20;;;29.60
68510;BMP180;55512;50.102;19.958;2022-08-19T09:14:58;98399.20;;;29.80
68510;BMP180;55512;50.102;19.958;2022-08-19T09:17:30;98398.40;;;29.90
68510;BMP180;55512;50.102;19.958;2022-08-19T09:20:14;98400.00;;;30.00
68510;BMP180;55512;50.102;19.958;2022-08-19T09:22:42;98396.40;;;30.10
68510;BMP180;55512;50.102;19.958;2022-08-19T09:25:16;98401.60;;;30.20
68510;BMP180;55512;50.102;19.958;2022-08-19T09:27:43;98399.40;;;30.30
68510;BMP180;55512;50.102;19.958;2022-08-19T09:30:18;98399.80;;;30.40
68510;BMP180;55512;50.102;19.958;2022-08-19T09:32:45;98390.20;;;30.48
68510;BMP180;55512;50.102;19.958;2022-08-19T09:35:13;98388.00;;;30.50
68510;BMP180;55512;50.102;19.958;2022-08-19T09:37:41;98383.80;;;30.60
68510;BMP180;55512;50.102;19.958;2022-08-19T09:40:08;98386.20;;;30.60
68510;BMP180;55512;50.102;19.958;2022-08-19T09:42:34;98382.20;;;30.68
68510;BMP180;55512;50.102;19.958;2022-08-19T09:45:00;98379.00;;;30.72
68510;BMP180;55512;50.102;19.958;2022-08-19T09:47:26;98379.40;;;30.80
68510;BMP180;55512;50.102;19.958;2022-08-19T09:49:51;98379.60;;;30.88
68510;BMP180;55512;50.102;19.958;2022-08-19T09:52:17;98382.80;;;30.90
68510;BMP180;55512;50.102;19.958;2022-08-19T09:54:43;98380.60;;;30.80
68510;BMP180;55512;50.102;19.958;2022-08-19T09:57:08;98376.00;;;30.70
68510;BMP180;55512;50.102;19.958;2022-08-19T09:59:34;98376.00;;;30.64
68510;BMP180;55512;50.102;19.958;2022-08-19T10:02:00;98371.40;;;30.60
68510;BMP180;55512;50.102;19.958;2022-08-19T10:04:26;98373.00;;;30.50
68510;BMP180;55512;50.102;19.958;2022-08-19T10:07:11;98369.80;;;30.50
68510;BMP180;55512;50.102;19.958;2022-08-19T10:09:37;98367.60;;;30.40
68510;BMP180;55512;50.102;19.958;2022-08-19T10:12:04;98366.80;;;30.40
68510;BMP180;55512;50.102;19.958;2022-08-19T10:14:30;98372.00;;;30.60
68510;BMP180;55512;50.102;19.958;2022-08-19T10:16:57;98365.20;;;30.80
68510;BMP180;55512;50.102;19.958;2022-08-19T10:19:22;98368.60;;;31.00
68510;BMP180;55512;50.102;19.958;2022-08-19T10:21:48;98365.20;;;31.28
68510;BMP180;55512;50.102;19.958;2022-08-19T10:24:14;98366.80;;;31.50
68510;BMP180;55512;50.102;19.958;2022-08-19T10:26:40;98362.40;;;31.70
68510;BMP180;55512;50.102;19.958;2022-08-19T10:29:12;98360.00;;;31.86
68510;BMP180;55512;50.102;19.958;2022-08-19T10:31:41;98359.80;;;32.00
68510;BMP180;55512;50.102;19.958;2022-08-19T10:34:07;98357.40;;;32.20
68510;BMP180;55512;50.102;19.958;2022-08-19T10:36:36;98357.40;;;32.30
68510;BMP180;55512;50.102;19.958;2022-08-19T10:39:08;98359.40;;;32.50
68510;BMP180;55512;50.102;19.958;2022-08-19T10:41:37;98357.20;;;32.60
68510;BMP180;55512;50.102;19.958;2022-08-19T10:44:10;98356.60;;;32.76
68510;BMP180;55512;50.102;19.958;2022-08-19T10:46:40;98360.40;;;32.90
68510;BMP180;55512;50.102;19.958;2022-08-19T10:49:10;98364.00;;;33.00
68510;BMP180;55512;50.102;19.958;2022-08-19T10:51:38;98367.60;;;33.14
68510;BMP180;55512;50.102;19.958;2022-08-19T10:54:23;98368.80;;;33.28
68510;BMP180;55512;50.102;19.958;2022-08-19T10:57:09;98366.40;;;33.36
68510;BMP180;55512;50.102;19.958;2022-08-19T10:59:35;98367.60;;;33.50
68510;BMP180;55512;50.102;19.958;2022-08-19T11:02:03;98366.60;;;33.60
68510;BMP180;55512;50.102;19.958;2022-08-19T11:04:29;98364.80;;;33.70
68510;BMP180;55512;50.102;19.958;2022-08-19T11:06:55;98365.20;;;33.70
68510;BMP180;55512;50.102;19.958;2022-08-19T11:09:25;98368.80;;;33.70
68510;BMP180;55512;50.102;19.958;2022-08-19T11:11:53;98362.60;;;33.60
68510;BMP180;55512;50.102;19.958;2022-08-19T11:14:20;98362.00;;;33.60
68510;BMP180;55512;50.102;19.958;2022-08-19T11:16:50;98354.60;;;33.60
68510;BMP180;55512;50.102;19.958;2022-08-19T11:19:16;98349.80;;;33.60
68510;BMP180;55512;50.102;19.958;2022-08-19T11:21:47;98345.00;;;33.70
68510;BMP180;55512;50.102;19.958;2022-08-19T11:24:20;98343.60;;;33.70
68510;BMP180;55512;50.102;19.958;2022-08-19T11:26:49;98345.20;;;33.60
68510;BMP180;55512;50.102;19.958;2022-08-19T11:29:18;98343.60;;;33.68
68510;BMP180;55512;50.102;19.958;2022-08-19T11:31:47;98342.20;;;33.70
68510;BMP180;55512;50.102;19.958;2022-08-19T11:34:18;98342.60;;;33.70
68510;BMP180;55512;50.102;19.958;2022-08-19T11:36:46;98344.60;;;33.80
68510;BMP180;55512;50.102;19.958;2022-08-19T11:39:15;98342.80;;;33.80
68510;BMP180;55512;50.102;19.958;2022-08-19T11:41:42;98339.40;;;33.88
68510;BMP180;55512;50.102;19.958;2022-08-19T11:44:08;98341.20;;;33.80
68510;BMP180;55512;50.102;19.958;2022-08-19T11:46:36;98336.80;;;33.72
68510;BMP180;55512;50.102;19.958;2022-08-19T11:49:05;98335.80;;;33.64
68510;BMP180;55512;50.102;19.958;2022-08-19T11:51:34;98330.40;;;33.54
68510;BMP180;55512;50.102;19.958;2022-08-19T11:54:01;98329.40;;;33.60
68510;BMP180;55512;50.102;19.958;2022-08-19T11:56:28;98326.80;;;33.70
68510;BMP180;55512;50.102;19.958;2022-08-19T11:58:55;98333.40;;;33.80
68510;BMP180;55512;50.102;19.958;2022-08-19T12:01:24;98335.80;;;33.90
68510;BMP180;55512;50.102;19.958;2022-08-19T12:03:53;98337.60;;;34.00
68510;BMP180;55512;50.102;19.958;2022-08-19T12:06:27;98338.00;;;34.10
68510;BMP180;55512;50.102;19.958;2022-08-19T12:08:56;98337.60;;;34.20
68510;BMP180;55512;50.102;19.958;2022-08-19T12:11:23;98339.60;;;34.26
68510;BMP180;55512;50.102;19.958;2022-08-19T12:13:49;98335.20;;;34.30
68510;BMP180;55512;50.102;19.958;2022-08-19T12:16:21;98344.80;;;34.40
68510;BMP180;55512;50.102;19.958;2022-08-19T12:18:48;98341.20;;;34.50
68510;BMP180;55512;50.102;19.958;2022-08-19T12:21:20;98339.60;;;34.58
68510;BMP180;55512;50.102;19.958;2022-08-19T12:23:48;98337.20;;;34.62
68510;BMP180;55512;50.102;19.958;2022-08-19T12:26:15;98333.00;;;34.70
68510;BMP180;55512;50.102;19.958;2022-08-19T12:28:41;98334.40;;;34.80
68510;BMP180;55512;50.102;19.958;2022-08-19T12:31:08;98336.60;;;34.90
68510;BMP180;55512;50.102;19.958;2022-08-19T12:33:37;98337.20;;;34.90
68510;BMP180;55512;50.102;19.958;2022-08-19T12:36:07;98337.60;;;35.00
68510;BMP180;55512;50.102;19.958;2022-08-19T12:38:33;98339.60;;;35.02
68510;BMP180;55512;50.102;19.958;2022-08-19T12:41:00;98334.80;;;35.10
68510;BMP180;55512;50.102;19.958;2022-08-19T12:43:27;98333.60;;;35.20
68510;BMP180;55512;50.102;19.958;2022-08-19T12:45:52;98330.80;;;35.20
68510;BMP180;55512;50.102;19.958;2022-08-19T12:48:18;98328.60;;;35.22
68510;BMP180;55512;50.102;19.958;2022-08-19T12:50:45;98329.40;;;35.30
68510;BMP180;55512;50.102;19.958;2022-08-19T12:53:11;98329.80;;;35.40
68510;BMP180;55512;50.102;19.958;2022-08-19T12:55:37;98323.80;;;35.50
68510;BMP180;55512;50.102;19.958;2022-08-19T12:58:03;98320.60;;;35.60
68510;BMP180;55512;50.102;19.958;2022-08-19T13:00:29;98321.60;;;35.60
68510;BMP180;55512;50.102;19.958;2022-08-19T13:02:58;98319.60;;;35.70
68510;BMP180;55512;50.102;19.958;2022-08-19T13:05:29;98320.60;;;35.80
68510;BMP180;55512;50.102;19.958;2022-08-19T13:07:58;98314.60;;;35.90
68510;BMP180;55512;50.102;19.958;2022-08-19T13:10:32;98321.20;;;36.00
68510;BMP180;55512;50.102;19.958;2022-08-19T13:13:03;98321.80;;;36.10
68510;BMP180;55512;50.102;19.958;2022-08-19T13:15:34;98326.20;;;36.20
68510;BMP180;55512;50.102;19.958;2022-08-19T13:18:01;98323.60;;;36.30
68510;BMP180;55512;50.102;19.958;2022-08-19T13:20:27;98326.40;;;36.40
68510;BMP180;55512;50.102;19.958;2022-08-19T13:22:54;98321.00;;;36.50
68510;BMP180;55512;50.102;19.958;2022-08-19T13:25:21;98319.00;;;36.52
68510;BMP180;55512;50.102;19.958;2022-08-19T13:27:48;98320.40;;;36.60
68510;BMP180;55512;50.102;19.958;2022-08-19T13:30:18;98319.00;;;36.70
68510;BMP180;55512;50.102;19.958;2022-08-19T13:33:03;98319.40;;;36.80
68510;BMP180;55512;50.102;19.958;2022-08-19T13:38:20;98311.40;;;36.90
68510;BMP180;55512;50.102;19.958;2022-08-19T13:40:47;98313.20;;;37.00
68510;BMP180;55512;50.102;19.958;2022-08-19T13:43:15;98314.00;;;37.02
68510;BMP180;55512;50.102;19.958;2022-08-19T13:45:40;98310.00;;;37.10
68510;BMP180;55512;50.102;19.958;2022-08-19T13:48:07;98303.40;;;37.20
68510;BMP180;55512;50.102;19.958;2022-08-19T13:50:39;98306.20;;;37.20
68510;BMP180;55512;50.102;19.958;2022-08-19T13:53:11;98304.80;;;37.30
68510;BMP180;55512;50.102;19.958;2022-08-19T13:55:40;98304.00;;;37.30
68510;BMP180;55512;50.102;19.958;2022-08-19T13:58:06;98301.60;;;37.40
68510;BMP180;55512;50.102;19.958;2022-08-19T14:00:37;98297.20;;;37.40
68510;BMP180;55512;50.102;19.958;2022-08-19T14:09:19;98287.60;;;37.78
68510;BMP180;55512;50.102;19.958;2022-08-19T14:11:44;98289.00;;;37.80
68510;BMP180;55512;50.102;19.958;2022-08-19T14:14:12;98288.00;;;37.80
68510;BMP180;55512;50.102;19.958;2022-08-19T14:16:37;98290.20;;;37.90
68510;BMP180;55512;50.102;19.958;2022-08-19T14:19:03;98285.40;;;37.98
68510;BMP180;55512;50.102;19.958;2022-08-19T14:21:29;98291.40;;;38.00
68510;BMP180;55512;50.102;19.958;2022-08-19T14:23:54;98289.60;;;38.00